sensor_id;sensor_type;location;lat;lon;timestamp;P1;durP1;ratioP1;P2;durP2;ratioP2
7128;SDS011;3606;52.930;8.644;2023-06-22T00:01:53;5.10;;;4.47;;
7128;SDS011;3606;52.930;8.644;2023-06-22T00:04:19;5.57;;;5.07;;
7128;SDS011;3606;52.930;8.644;2023-06-22T00:06:45;5.73;;;5.03;;
7128;SDS011;3606;52.930;8.644;2023-06-22T00:09:10;7.40;;;5.27;;
7128;SDS011;3606;52.930;8.644;2023-06-22T00:11:36;5.30;;;4.80;;
7128;SDS011;3606;52.930;8.644;2023-06-22T00:14:03;5.67;;;4.20;;
7128;SDS011;3606;52.930;8.644;2023-06-22T00:16:29;5.63;;;5.03;;
7128;SDS011;3606;52.930;8.644;2023-06-22T00:18:55;6.83;;;5.20;;
7128;SDS011;3606;52.930;8.644;2023-06-22T00:21:20;7.20;;;4.90;;
7128;SDS011;3606;52.930;8.644;2023-06-22T00:23:46;6.23;;;5.07;;
7128;SDS011;3606;52.930;8.644;2023-06-22T00:26:12;7.83;;;5.87;;
7128;SDS011;3606;52.930;8.644;2023-06-22T00:28:38;6.97;;;5.87;;
7128;SDS011;3606;52.930;8.644;2023-06-22T00:31:04;7.13;;;5.57;;
7128;SDS011;3606;52.930;8.644;2023-06-22T00:33:30;6.13;;;5.53;;
7128;SDS011;3606;52.930;8.644;2023-06-22T00:35:56;8.27;;;5.30;;
7128;SDS011;3606;52.930;8.644;2023-06-22T00:38:22;7.40;;;5.47;;
7128;SDS011;3606;52.930;8.644;2023-06-22T00:40:48;8.63;;;5.90;;
7128;SDS011;3606;52.930;8.644;2023-06-22T00:43:13;8.50;;;5.40;;
7128;SDS011;3606;52.930;8.644;2023-06-22T00:45:39;7.20;;;6.10;;
7128;SDS011;3606;52.930;8.644;2023-06-22T00:48:05;7.33;;;5.73;;
7128;SDS011;3606;52.930;8.644;2023-06-22T00:50:33;7.13;;;5.87;;
7128;SDS011;3606;52.930;8.644;2023-06-22T00:53:00;7.93;;;6.33;;
7128;SDS011;3606;52.930;8.644;2023-06-22T00:55:33;7.87;;;6.43;;
7128;SDS011;3606;52.930;8.644;2023-06-22T00:58:08;6.87;;;6.17;;
7128;SDS011;3606;52.930;8.644;2023-06-22T01:00:35;9.27;;;6.33;;
7128;SDS011;3606;52.930;8.644;2023-06-22T01:03:02;6.10;;;5.50;;
7128;SDS011;3606;52.930;8.644;2023-06-22T01:05:28;7.73;;;6.50;;
7128;SDS011;3606;52.930;8.644;2023-06-22T01:08:08;6.67;;;5.90;;
7128;SDS011;3606;52.930;8.644;2023-06-22T01:10:50;7.10;;;5.60;;
7128;SDS011;3606;52.930;8.644;2023-06-22T01:16:07;8.03;;;5.87;;
7128;SDS011;3606;52.930;8.644;2023-06-22T01:18:42;7.50;;;6.33;;
7128;SDS011;3606;52.930;8.644;2023-06-22T01:21:11;7.53;;;6.00;;
7128;SDS011;3606;52.930;8.644;2023-06-22T01:23:50;7.17;;;6.47;;
7128;SDS011;3606;52.930;8.644;2023-06-22T01:26:38;7.87;;;6.57;;
7128;SDS011;3606;52.930;8.644;2023-06-22T01:29:08;9.10;;;6.53;;
7128;SDS011;3606;52.930;8.644;2023-06-22T01:31:37;8.03;;;6.77;;
7128;SDS011;3606;52.930;8.644;2023-06-22T01:34:06;8.53;;;6.70;;
7128;SDS011;3606;52.930;8.644;2023-06-22T01:36:33;9.87;;;7.27;;
7128;SDS011;3606;52.930;8.644;2023-06-22T01:38:59;7.50;;;6.50;;
7128;SDS011;3606;52.930;8.644;2023-06-22T01:41:26;7.50;;;6.77;;
7128;SDS011;3606;52.930;8.644;2023-06-22T01:43:54;10.23;;;7.47;;
7128;SDS011;3606;52.930;8.644;2023-06-22T01:46:21;10.37;;;8.40;;
7128;SDS011;3606;52.930;8.644;2023-06-22T01:48:47;9.00;;;7.87;;
7128;SDS011;3606;52.930;8.644;2023-06-22T01:51:13;9.23;;;8.10;;
7128;SDS011;3606;52.930;8.644;2023-06-22T01:53:40;14.30;;;10.93;;
7128;SDS011;3606;52.930;8.644;2023-06-22T01:56:06;12.50;;;11.13;;
7128;SDS011;3606;52.930;8.644;2023-06-22T01:58:32;13.00;;;9.97;;
7128;SDS011;3606;52.930;8.644;2023-06-22T02:01:09;10.97;;;9.57;;
7128;SDS011;3606;52.930;8.644;2023-06-22T02:03:37;12.43;;;10.07;;
7128;SDS011;3606;52.930;8.644;2023-06-22T02:06:11;12.83;;;10.33;;
7128;SDS011;3606;52.930;8.644;2023-06-22T02:08:46;10.97;;;9.77;;
7128;SDS011;3606;52.930;8.644;2023-06-22T02:11:15;11.27;;;9.87;;
7128;SDS011;3606;52.930;8.644;2023-06-22T02:13:44;11.80;;;9.47;;
7128;SDS011;3606;52.930;8.644;2023-06-22T02:16:10;10.20;;;8.60;;
7128;SDS011;3606;52.930;8.644;2023-06-22T02:18:36;9.13;;;8.23;;
7128;SDS011;3606;52.930;8.644;2023-06-22T02:21:02;13.03;;;8.97;;
7128;SDS011;3606;52.930;8.644;2023-06-22T02:23:28;13.80;;;11.10;;
7128;SDS011;3606;52.930;8.644;2023-06-22T02:25:53;14.50;;;11.47;;
7128;SDS011;3606;52.930;8.644;2023-06-22T02:28:19;15.43;;;11.97;;
7128;SDS011;3606;52.930;8.644;2023-06-22T02:30:44;17.17;;;12.57;;
7128;SDS011;3606;52.930;8.644;2023-06-22T02:33:10;11.73;;;10.53;;
7128;SDS011;3606;52.930;8.644;2023-06-22T02:35:36;14.33;;;10.77;;
7128;SDS011;3606;52.930;8.644;2023-06-22T02:38:03;15.03;;;11.70;;
7128;SDS011;3606;52.930;8.644;2023-06-22T02:40:29;14.93;;;11.97;;
7128;SDS011;3606;52.930;8.644;2023-06-22T02:42:55;12.10;;;10.50;;
7128;SDS011;3606;52.930;8.644;2023-06-22T02:45:23;11.10;;;9.90;;
7128;SDS011;3606;52.930;8.644;2023-06-22T02:47:48;11.63;;;10.33;;
7128;SDS011;3606;52.930;8.644;2023-06-22T02:50:14;15.87;;;10.70;;
7128;SDS011;3606;52.930;8.644;2023-06-22T02:52:40;12.73;;;10.40;;
7128;SDS011;3606;52.930;8.644;2023-06-22T02:55:06;12.70;;;11.20;;
7128;SDS011;3606;52.930;8.644;2023-06-22T02:57:33;16.70;;;11.60;;
7128;SDS011;3606;52.930;8.644;2023-06-22T02:59:59;14.70;;;10.53;;
7128;SDS011;3606;52.930;8.644;2023-06-22T03:02:24;14.13;;;12.67;;
7128;SDS011;3606;52.930;8.644;2023-06-22T03:04:51;13.97;;;10.77;;
7128;SDS011;3606;52.930;8.644;2023-06-22T03:07:18;13.50;;;10.33;;
7128;SDS011;3606;52.930;8.644;2023-06-22T03:09:44;12.43;;;11.17;;
7128;SDS011;3606;52.930;8.644;2023-06-22T03:12:10;14.53;;;11.67;;
7128;SDS011;3606;52.930;8.644;2023-06-22T03:14:36;14.00;;;11.40;;
7128;SDS011;3606;52.930;8.644;2023-06-22T03:17:02;13.90;;;11.00;;
7128;SDS011;3606;52.930;8.644;2023-06-22T03:19:30;12.83;;;10.33;;
7128;SDS011;3606;52.930;8.644;2023-06-22T03:21:57;15.37;;;12.10;;
7128;SDS011;3606;52.930;8.644;2023-06-22T03:24:24;13.13;;;11.70;;
7128;SDS011;3606;52.930;8.644;2023-06-22T03:26:50;17.97;;;11.90;;
7128;SDS011;3606;52.930;8.644;2023-06-22T03:29:15;15.03;;;12.47;;
7128;SDS011;3606;52.930;8.644;2023-06-22T03:31:41;13.27;;;11.20;;
7128;SDS011;3606;52.930;8.644;2023-06-22T03:34:07;14.07;;;11.33;;
7128;SDS011;3606;52.930;8.644;2023-06-22T03:36:32;13.13;;;10.67;;
7128;SDS011;3606;52.930;8.644;2023-06-22T03:38:58;15.37;;;10.47;;
7128;SDS011;3606;52.930;8.644;2023-06-22T03:41:24;12.40;;;10.37;;
7128;SDS011;3606;52.930;8.644;2023-06-22T03:43:50;13.90;;;10.93;;
7128;SDS011;3606;52.930;8.644;2023-06-22T03:46:16;17.53;;;10.40;;
7128;SDS011;3606;52.930;8.644;2023-06-22T03:48:41;11.67;;;10.03;;
7128;SDS011;3606;52.930;8.644;2023-06-22T03:51:07;12.60;;;10.70;;
7128;SDS011;3606;52.930;8.644;2023-06-22T03:53:33;11.87;;;10.53;;
7128;SDS011;3606;52.930;8.644;2023-06-22T03:55:58;13.97;;;11.37;;
7128;SDS011;3606;52.930;8.644;2023-06-22T03:58:24;13.77;;;10.27;;
7128;SDS011;3606;52.930;8.644;2023-06-22T04:00:50;11.60;;;9.73;;
7128;SDS011;3606;52.930;8.644;2023-06-22T04:03:16;14.70;;;10.37;;
7128;SDS011;3606;52.930;8.644;2023-06-22T04:05:43;15.93;;;10.73;;
7128;SDS011;3606;52.930;8.644;2023-06-22T04:08:09;11.10;;;8.53;;
7128;SDS011;3606;52.930;8.644;2023-06-22T04:10:35;13.13;;;10.70;;
7128;SDS011;3606;52.930;8.644;2023-06-22T04:13:01;13.00;;;9.20;;
7128;SDS011;3606;52.930;8.644;2023-06-22T04:15:27;14.67;;;10.53;;
7128;SDS011;3606;52.930;8.644;2023-06-22T04:17:54;12.83;;;9.90;;
7128;SDS011;3606;52.930;8.644;2023-06-22T04:20:21;15.13;;;9.80;;
7128;SDS011;3606;52.930;8.644;2023-06-22T04:22:46;12.90;;;9.87;;
7128;SDS011;3606;52.930;8.644;2023-06-22T04:25:12;13.47;;;9.97;;
7128;SDS011;3606;52.930;8.644;2023-06-22T04:27:38;11.27;;;9.47;;
7128;SDS011;3606;52.930;8.644;2023-06-22T04:30:07;11.33;;;9.03;;
7128;SDS011;3606;52.930;8.644;2023-06-22T04:32:34;12.10;;;9.70;;
7128;SDS011;3606;52.930;8.644;2023-06-22T04:35:03;10.80;;;9.17;;
7128;SDS011;3606;52.930;8.644;2023-06-22T04:37:32;13.23;;;10.00;;
7128;SDS011;3606;52.930;8.644;2023-06-22T04:39:58;11.70;;;9.73;;
7128;SDS011;3606;52.930;8.644;2023-06-22T04:42:25;12.43;;;10.20;;
7128;SDS011;3606;52.930;8.644;2023-06-22T04:44:51;12.57;;;10.30;;
7128;SDS011;3606;52.930;8.644;2023-06-22T04:47:17;10.83;;;9.40;;
7128;SDS011;3606;52.930;8.644;2023-06-22T04:49:43;12.67;;;9.87;;
7128;SDS011;3606;52.930;8.644;2023-06-22T04:52:09;12.33;;;9.13;;
7128;SDS011;3606;52.930;8.644;2023-06-22T04:54:37;12.53;;;9.83;;
7128;SDS011;3606;52.930;8.644;2023-06-22T04:57:04;14.47;;;10.90;;
7128;SDS011;3606;52.930;8.644;2023-06-22T04:59:34;13.50;;;10.63;;
7128;SDS011;3606;52.930;8.644;2023-06-22T05:02:01;16.90;;;11.93;;
7128;SDS011;3606;52.930;8.644;2023-06-22T05:04:28;18.13;;;12.30;;
7128;SDS011;3606;52.930;8.644;2023-06-22T05:06:56;17.20;;;11.57;;
7128;SDS011;3606;52.930;8.644;2023-06-22T05:09:22;12.90;;;10.40;;
7128;SDS011;3606;52.930;8.644;2023-06-22T05:11:49;12.77;;;10.80;;
7128;SDS011;3606;52.930;8.644;2023-06-22T05:14:15;14.90;;;10.57;;
7128;SDS011;3606;52.930;8.644;2023-06-22T05:16:41;11.33;;;10.00;;
7128;SDS011;3606;52.930;8.644;2023-06-22T05:19:08;14.97;;;9.87;;
7128;SDS011;3606;52.930;8.644;2023-06-22T05:21:34;14.13;;;11.30;;
7128;SDS011;3606;52.930;8.644;2023-06-22T05:23:59;15.37;;;11.57;;
7128;SDS011;3606;52.930;8.644;2023-06-22T05:26:27;13.37;;;10.73;;
7128;SDS011;3606;52.930;8.644;2023-06-22T05:28:57;14.20;;;11.43;;
7128;SDS011;3606;52.930;8.644;2023-06-22T05:31:25;17.10;;;11.47;;
7128;SDS011;3606;52.930;8.644;2023-06-22T05:33:51;13.50;;;11.60;;
7128;SDS011;3606;52.930;8.644;2023-06-22T05:36:18;14.03;;;11.40;;
7128;SDS011;3606;52.930;8.644;2023-06-22T05:38:50;15.30;;;11.77;;
7128;SDS011;3606;52.930;8.644;2023-06-22T05:41:16;12.60;;;10.55;;
7128;SDS011;3606;52.930;8.644;2023-06-22T05:43:42;12.20;;;10.25;;
7128;SDS011;3606;52.930;8.644;2023-06-22T05:46:08;12.23;;;9.88;;
7128;SDS011;3606;52.930;8.644;2023-06-22T05:48:33;12.70;;;10.73;;
7128;SDS011;3606;52.930;8.644;2023-06-22T05:50:59;10.27;;;9.27;;
7128;SDS011;3606;52.930;8.644;2023-06-22T05:53:25;12.43;;;9.65;;
7128;SDS011;3606;52.930;8.644;2023-06-22T05:55:50;15.30;;;10.23;;
7128;SDS011;3606;52.930;8.644;2023-06-22T05:58:16;13.65;;;10.07;;
7128;SDS011;3606;52.930;8.644;2023-06-22T06:00:41;11.55;;;10.13;;
7128;SDS011;3606;52.930;8.644;2023-06-22T06:03:08;10.63;;;8.95;;
7128;SDS011;3606;52.930;8.644;2023-06-22T06:05:35;12.98;;;9.10;;
7128;SDS011;3606;52.930;8.644;2023-06-22T06:08:01;11.00;;;8.70;;
7128;SDS011;3606;52.930;8.644;2023-06-22T06:10:30;12.88;;;8.85;;
7128;SDS011;3606;52.930;8.644;2023-06-22T06:12:56;10.38;;;9.10;;
7128;SDS011;3606;52.930;8.644;2023-06-22T06:15:21;12.90;;;8.93;;
7128;SDS011;3606;52.930;8.644;2023-06-22T06:17:48;14.27;;;9.52;;
7128;SDS011;3606;52.930;8.644;2023-06-22T06:20:15;12.52;;;9.43;;
7128;SDS011;3606;52.930;8.644;2023-06-22T06:22:41;12.82;;;8.80;;
7128;SDS011;3606;52.930;8.644;2023-06-22T06:25:07;11.82;;;9.40;;
7128;SDS011;3606;52.930;8.644;2023-06-22T06:27:33;10.95;;;9.40;;
7128;SDS011;3606;52.930;8.644;2023-06-22T06:29:59;10.50;;;8.98;;
7128;SDS011;3606;52.930;8.644;2023-06-22T06:32:24;11.57;;;9.00;;
7128;SDS011;3606;52.930;8.644;2023-06-22T06:34:50;13.38;;;8.60;;
7128;SDS011;3606;52.930;8.644;2023-06-22T06:37:16;11.63;;;8.77;;
7128;SDS011;3606;52.930;8.644;2023-06-22T06:39:43;10.70;;;9.48;;
7128;SDS011;3606;52.930;8.644;2023-06-22T06:42:09;9.93;;;8.13;;
7128;SDS011;3606;52.930;8.644;2023-06-22T06:44:36;7.93;;;7.13;;
7128;SDS011;3606;52.930;8.644;2023-06-22T06:47:02;10.00;;;7.97;;
7128;SDS011;3606;52.930;8.644;2023-06-22T06:49:29;9.43;;;7.75;;
7128;SDS011;3606;52.930;8.644;2023-06-22T06:51:54;9.25;;;7.53;;
7128;SDS011;3606;52.930;8.644;2023-06-22T06:54:20;10.13;;;7.60;;
7128;SDS011;3606;52.930;8.644;2023-06-22T06:56:46;8.80;;;7.90;;
7128;SDS011;3606;52.930;8.644;2023-06-22T06:59:13;9.40;;;7.43;;
7128;SDS011;3606;52.930;8.644;2023-06-22T07:01:41;9.35;;;6.63;;
7128;SDS011;3606;52.930;8.644;2023-06-22T07:04:09;7.78;;;6.63;;
7128;SDS011;3606;52.930;8.644;2023-06-22T07:06:35;8.43;;;6.85;;
7128;SDS011;3606;52.930;8.644;2023-06-22T07:09:00;10.75;;;7.15;;
7128;SDS011;3606;52.930;8.644;2023-06-22T07:11:26;9.65;;;6.88;;
7128;SDS011;3606;52.930;8.644;2023-06-22T07:13:52;9.25;;;6.63;;
7128;SDS011;3606;52.930;8.644;2023-06-22T07:16:17;10.13;;;5.90;;
7128;SDS011;3606;52.930;8.644;2023-06-22T07:18:43;15.25;;;5.60;;
7128;SDS011;3606;52.930;8.644;2023-06-22T07:21:09;6.40;;;4.95;;
7128;SDS011;3606;52.930;8.644;2023-06-22T07:23:34;6.82;;;5.68;;
7128;SDS011;3606;52.930;8.644;2023-06-22T07:26:00;6.53;;;4.78;;
7128;SDS011;3606;52.930;8.644;2023-06-22T07:28:31;8.00;;;5.20;;
7128;SDS011;3606;52.930;8.644;2023-06-22T07:31:16;8.80;;;4.63;;
7128;SDS011;3606;52.930;8.644;2023-06-22T07:33:42;6.53;;;4.97;;
7128;SDS011;3606;52.930;8.644;2023-06-22T07:36:07;11.10;;;5.40;;
7128;SDS011;3606;52.930;8.644;2023-06-22T07:38:33;7.10;;;5.28;;
7128;SDS011;3606;52.930;8.644;2023-06-22T07:41:00;5.50;;;4.72;;
7128;SDS011;3606;52.930;8.644;2023-06-22T07:43:26;5.53;;;4.70;;
7128;SDS011;3606;52.930;8.644;2023-06-22T07:45:51;6.80;;;5.28;;
7128;SDS011;3606;52.930;8.644;2023-06-22T07:48:17;6.93;;;4.20;;
7128;SDS011;3606;52.930;8.644;2023-06-22T07:50:47;6.35;;;4.60;;
7128;SDS011;3606;52.930;8.644;2023-06-22T07:53:12;5.63;;;4.45;;
7128;SDS011;3606;52.930;8.644;2023-06-22T07:55:38;5.75;;;4.90;;
7128;SDS011;3606;52.930;8.644;2023-06-22T07:58:03;7.10;;;4.85;;
7128;SDS011;3606;52.930;8.644;2023-06-22T08:00:29;4.93;;;4.43;;
7128;SDS011;3606;52.930;8.644;2023-06-22T08:02:55;7.72;;;5.20;;
7128;SDS011;3606;52.930;8.644;2023-06-22T08:05:21;4.85;;;3.67;;
7128;SDS011;3606;52.930;8.644;2023-06-22T08:07:46;5.53;;;4.45;;
7128;SDS011;3606;52.930;8.644;2023-06-22T08:10:12;4.82;;;4.28;;
7128;SDS011;3606;52.930;8.644;2023-06-22T08:12:39;4.82;;;4.32;;
7128;SDS011;3606;52.930;8.644;2023-06-22T08:15:05;6.72;;;4.18;;
7128;SDS011;3606;52.930;8.644;2023-06-22T08:17:32;5.32;;;4.03;;
7128;SDS011;3606;52.930;8.644;2023-06-22T08:19:58;6.47;;;4.28;;
7128;SDS011;3606;52.930;8.644;2023-06-22T08:22:23;3.95;;;3.58;;
7128;SDS011;3606;52.930;8.644;2023-06-22T08:24:49;4.53;;;3.78;;
7128;SDS011;3606;52.930;8.644;2023-06-22T08:27:16;4.95;;;3.85;;
7128;SDS011;3606;52.930;8.644;2023-06-22T08:29:43;4.05;;;3.38;;
7128;SDS011;3606;52.930;8.644;2023-06-22T08:32:10;5.80;;;3.83;;
7128;SDS011;3606;52.930;8.644;2023-06-22T08:34:36;4.10;;;3.70;;
7128;SDS011;3606;52.930;8.644;2023-06-22T08:37:07;5.97;;;3.95;;
7128;SDS011;3606;52.930;8.644;2023-06-22T08:39:33;3.75;;;3.40;;
7128;SDS011;3606;52.930;8.644;2023-06-22T08:41:58;3.60;;;3.30;;
7128;SDS011;3606;52.930;8.644;2023-06-22T08:44:25;4.80;;;3.60;;
7128;SDS011;3606;52.930;8.644;2023-06-22T08:46:50;5.30;;;3.63;;
7128;SDS011;3606;52.930;8.644;2023-06-22T08:49:16;6.50;;;3.38;;
7128;SDS011;3606;52.930;8.644;2023-06-22T08:51:41;4.57;;;3.95;;
7128;SDS011;3606;52.930;8.644;2023-06-22T08:54:07;3.97;;;3.60;;
7128;SDS011;3606;52.930;8.644;2023-06-22T08:56:32;3.85;;;3.33;;
7128;SDS011;3606;52.930;8.644;2023-06-22T08:58:58;4.70;;;3.45;;
7128;SDS011;3606;52.930;8.644;2023-06-22T09:01:23;4.05;;;3.63;;
7128;SDS011;3606;52.930;8.644;2023-06-22T09:03:49;4.80;;;3.95;;
7128;SDS011;3606;52.930;8.644;2023-06-22T09:06:19;3.90;;;3.58;;
7128;SDS011;3606;52.930;8.644;2023-06-22T09:08:46;4.32;;;3.92;;
7128;SDS011;3606;52.930;8.644;2023-06-22T09:11:12;3.90;;;3.60;;
7128;SDS011;3606;52.930;8.644;2023-06-22T09:13:37;4.18;;;3.85;;
7128;SDS011;3606;52.930;8.644;2023-06-22T09:16:03;5.78;;;3.75;;
7128;SDS011;3606;52.930;8.644;2023-06-22T09:18:29;3.60;;;3.30;;
7128;SDS011;3606;52.930;8.644;2023-06-22T09:20:55;4.00;;;3.30;;
7128;SDS011;3606;52.930;8.644;2023-06-22T09:23:21;5.63;;;4.15;;
7128;SDS011;3606;52.930;8.644;2023-06-22T09:25:46;7.82;;;3.88;;
7128;SDS011;3606;52.930;8.644;2023-06-22T09:28:13;5.55;;;3.85;;
7128;SDS011;3606;52.930;8.644;2023-06-22T09:30:39;5.15;;;4.65;;
7128;SDS011;3606;52.930;8.644;2023-06-22T09:33:04;4.53;;;4.03;;
7128;SDS011;3606;52.930;8.644;2023-06-22T09:35:30;3.75;;;3.35;;
7128;SDS011;3606;52.930;8.644;2023-06-22T09:37:55;4.28;;;3.88;;
7128;SDS011;3606;52.930;8.644;2023-06-22T09:40:21;4.25;;;3.60;;
7128;SDS011;3606;52.930;8.644;2023-06-22T09:42:46;4.30;;;3.90;;
7128;SDS011;3606;52.930;8.644;2023-06-22T09:45:12;4.30;;;3.60;;
7128;SDS011;3606;52.930;8.644;2023-06-22T09:47:38;4.53;;;3.78;;
7128;SDS011;3606;52.930;8.644;2023-06-22T09:50:04;4.63;;;4.18;;
7128;SDS011;3606;52.930;8.644;2023-06-22T09:52:30;4.22;;;3.45;;
7128;SDS011;3606;52.930;8.644;2023-06-22T09:54:56;4.25;;;3.92;;
7128;SDS011;3606;52.930;8.644;2023-06-22T09:57:21;4.10;;;3.70;;
7128;SDS011;3606;52.930;8.644;2023-06-22T09:59:47;7.82;;;3.85;;
7128;SDS011;3606;52.930;8.644;2023-06-22T10:02:12;5.35;;;4.38;;
7128;SDS011;3606;52.930;8.644;2023-06-22T10:04:38;3.90;;;3.60;;
7128;SDS011;3606;52.930;8.644;2023-06-22T10:07:05;4.13;;;3.80;;
7128;SDS011;3606;52.930;8.644;2023-06-22T10:09:31;4.38;;;3.97;;
7128;SDS011;3606;52.930;8.644;2023-06-22T10:11:56;5.60;;;4.47;;
7128;SDS011;3606;52.930;8.644;2023-06-22T10:14:22;4.68;;;4.25;;
7128;SDS011;3606;52.930;8.644;2023-06-22T10:16:49;4.65;;;4.15;;
7128;SDS011;3606;52.930;8.644;2023-06-22T10:19:16;7.13;;;4.65;;
7128;SDS011;3606;52.930;8.644;2023-06-22T10:21:41;5.32;;;4.22;;
7128;SDS011;3606;52.930;8.644;2023-06-22T10:24:07;5.75;;;4.00;;
7128;SDS011;3606;52.930;8.644;2023-06-22T10:26:33;4.97;;;4.50;;
7128;SDS011;3606;52.930;8.644;2023-06-22T10:28:59;5.50;;;5.00;;
7128;SDS011;3606;52.930;8.644;2023-06-22T10:31:26;12.68;;;4.53;;
7128;SDS011;3606;52.930;8.644;2023-06-22T10:33:52;5.32;;;3.78;;
7128;SDS011;3606;52.930;8.644;2023-06-22T10:36:19;5.43;;;4.32;;
7128;SDS011;3606;52.930;8.644;2023-06-22T10:38:44;4.55;;;4.15;;
7128;SDS011;3606;52.930;8.644;2023-06-22T10:41:12;4.40;;;4.00;;
7128;SDS011;3606;52.930;8.644;2023-06-22T10:43:37;4.95;;;4.55;;
7128;SDS011;3606;52.930;8.644;2023-06-22T10:46:03;5.03;;;4.28;;
7128;SDS011;3606;52.930;8.644;2023-06-22T10:48:28;4.50;;;4.10;;
7128;SDS011;3606;52.930;8.644;2023-06-22T10:50:54;4.85;;;3.85;;
7128;SDS011;3606;52.930;8.644;2023-06-22T10:53:19;6.18;;;5.20;;
7128;SDS011;3606;52.930;8.644;2023-06-22T10:55:46;4.57;;;4.18;;
7128;SDS011;3606;52.930;8.644;2023-06-22T10:58:12;6.25;;;4.53;;
7128;SDS011;3606;52.930;8.644;2023-06-22T11:00:37;5.32;;;4.82;;
7128;SDS011;3606;52.930;8.644;2023-06-22T11:03:03;5.22;;;4.30;;
7128;SDS011;3606;52.930;8.644;2023-06-22T11:05:28;5.38;;;4.57;;
7128;SDS011;3606;52.930;8.644;2023-06-22T11:07:54;6.53;;;5.00;;
7128;SDS011;3606;52.930;8.644;2023-06-22T11:10:19;6.13;;;4.68;;
7128;SDS011;3606;52.930;8.644;2023-06-22T11:12:45;5.20;;;4.70;;
7128;SDS011;3606;52.930;8.644;2023-06-22T11:15:11;5.05;;;4.60;;
7128;SDS011;3606;52.930;8.644;2023-06-22T11:17:36;4.60;;;4.05;;
7128;SDS011;3606;52.930;8.644;2023-06-22T11:20:02;4.78;;;4.38;;
7128;SDS011;3606;52.930;8.644;2023-06-22T11:22:35;6.10;;;4.72;;
7128;SDS011;3606;52.930;8.644;2023-06-22T11:25:04;6.78;;;4.35;;
7128;SDS011;3606;52.930;8.644;2023-06-22T11:27:31;4.68;;;4.28;;
7128;SDS011;3606;52.930;8.644;2023-06-22T11:29:57;4.75;;;4.35;;
7128;SDS011;3606;52.930;8.644;2023-06-22T11:32:22;6.78;;;4.80;;
7128;SDS011;3606;52.930;8.644;2023-06-22T11:34:48;6.40;;;4.60;;
7128;SDS011;3606;52.930;8.644;2023-06-22T11:37:14;6.72;;;4.93;;
7128;SDS011;3606;52.930;8.644;2023-06-22T11:39:40;5.53;;;4.30;;
7128;SDS011;3606;52.930;8.644;2023-06-22T11:42:06;4.82;;;4.32;;
7128;SDS011;3606;52.930;8.644;2023-06-22T11:44:32;5.32;;;4.82;;
7128;SDS011;3606;52.930;8.644;2023-06-22T11:46:58;5.18;;;4.05;;
7128;SDS011;3606;52.930;8.644;2023-06-22T11:49:25;6.97;;;4.45;;
7128;SDS011;3606;52.930;8.644;2023-06-22T11:51:51;6.30;;;4.53;;
7128;SDS011;3606;52.930;8.644;2023-06-22T11:54:17;4.90;;;4.45;;
7128;SDS011;3606;52.930;8.644;2023-06-22T11:56:42;4.75;;;4.22;;
7128;SDS011;3606;52.930;8.644;2023-06-22T11:59:08;5.03;;;4.10;;
7128;SDS011;3606;52.930;8.644;2023-06-22T12:01:34;7.50;;;4.20;;
7128;SDS011;3606;52.930;8.644;2023-06-22T12:03:59;4.07;;;3.70;;
7128;SDS011;3606;52.930;8.644;2023-06-22T12:06:25;5.18;;;4.22;;
7128;SDS011;3606;52.930;8.644;2023-06-22T12:08:50;4.72;;;4.28;;
7128;SDS011;3606;52.930;8.644;2023-06-22T12:11:16;5.20;;;4.60;;
7128;SDS011;3606;52.930;8.644;2023-06-22T12:13:41;5.00;;;4.47;;
7128;SDS011;3606;52.930;8.644;2023-06-22T12:16:07;4.97;;;4.13;;
7128;SDS011;3606;52.930;8.644;2023-06-22T12:18:32;4.95;;;4.53;;
7128;SDS011;3606;52.930;8.644;2023-06-22T12:20:58;6.65;;;3.90;;
7128;SDS011;3606;52.930;8.644;2023-06-22T12:23:24;5.18;;;4.60;;
7128;SDS011;3606;52.930;8.644;2023-06-22T12:25:50;5.35;;;4.43;;
7128;SDS011;3606;52.930;8.644;2023-06-22T12:28:15;4.15;;;3.75;;
7128;SDS011;3606;52.930;8.644;2023-06-22T12:30:41;5.40;;;4.90;;
7128;SDS011;3606;52.930;8.644;2023-06-22T12:33:06;5.82;;;4.05;;
7128;SDS011;3606;52.930;8.644;2023-06-22T12:35:32;7.00;;;4.57;;
7128;SDS011;3606;52.930;8.644;2023-06-22T12:37:58;5.70;;;4.47;;
7128;SDS011;3606;52.930;8.644;2023-06-22T12:40:23;4.93;;;4.47;;
7128;SDS011;3606;52.930;8.644;2023-06-22T12:42:49;4.82;;;4.32;;
7128;SDS011;3606;52.930;8.644;2023-06-22T12:45:15;4.88;;;4.47;;
7128;SDS011;3606;52.930;8.644;2023-06-22T12:47:40;5.53;;;4.10;;
7128;SDS011;3606;52.930;8.644;2023-06-22T12:50:06;8.45;;;4.85;;
7128;SDS011;3606;52.930;8.644;2023-06-22T12:52:32;5.50;;;4.53;;
7128;SDS011;3606;52.930;8.644;2023-06-22T12:54:58;4.70;;;3.83;;
7128;SDS011;3606;52.930;8.644;2023-06-22T12:57:23;6.35;;;4.72;;
7128;SDS011;3606;52.930;8.644;2023-06-22T12:59:50;5.22;;;4.65;;
7128;SDS011;3606;52.930;8.644;2023-06-22T13:02:16;4.43;;;4.03;;
7128;SDS011;3606;52.930;8.644;2023-06-22T13:04:41;4.88;;;4.40;;
7128;SDS011;3606;52.930;8.644;2023-06-22T13:07:08;4.82;;;4.43;;
7128;SDS011;3606;52.930;8.644;2023-06-22T13:09:33;4.47;;;4.07;;
7128;SDS011;3606;52.930;8.644;2023-06-22T13:12:01;5.15;;;4.50;;
7128;SDS011;3606;52.930;8.644;2023-06-22T13:14:27;4.80;;;4.10;;
7128;SDS011;3606;52.930;8.644;2023-06-22T13:16:52;6.78;;;4.75;;
7128;SDS011;3606;52.930;8.644;2023-06-22T13:19:18;6.38;;;4.43;;
7128;SDS011;3606;52.930;8.644;2023-06-22T13:21:44;6.63;;;4.55;;
7128;SDS011;3606;52.930;8.644;2023-06-22T13:24:09;5.50;;;4.50;;
7128;SDS011;3606;52.930;8.644;2023-06-22T13:26:35;5.15;;;4.65;;
7128;SDS011;3606;52.930;8.644;2023-06-22T13:29:00;7.28;;;4.85;;
7128;SDS011;3606;52.930;8.644;2023-06-22T13:31:26;5.97;;;4.65;;
7128;SDS011;3606;52.930;8.644;2023-06-22T13:33:51;5.28;;;4.45;;
7128;SDS011;3606;52.930;8.644;2023-06-22T13:36:17;7.25;;;4.88;;
7128;SDS011;3606;52.930;8.644;2023-06-22T13:38:43;5.05;;;4.57;;
7128;SDS011;3606;52.930;8.644;2023-06-22T13:41:09;6.45;;;5.05;;
7128;SDS011;3606;52.930;8.644;2023-06-22T13:43:35;5.10;;;4.60;;
7128;SDS011;3606;52.930;8.644;2023-06-22T13:46:01;5.10;;;4.60;;
7128;SDS011;3606;52.930;8.644;2023-06-22T13:48:26;5.30;;;4.47;;
7128;SDS011;3606;52.930;8.644;2023-06-22T13:50:53;7.38;;;4.95;;
7128;SDS011;3606;52.930;8.644;2023-06-22T13:53:19;5.80;;;4.30;;
7128;SDS011;3606;52.930;8.644;2023-06-22T13:55:44;5.35;;;4.85;;
7128;SDS011;3606;52.930;8.644;2023-06-22T13:58:11;4.93;;;4.43;;
7128;SDS011;3606;52.930;8.644;2023-06-22T14:00:37;4.65;;;4.25;;
7128;SDS011;3606;52.930;8.644;2023-06-22T14:03:03;5.10;;;4.63;;
7128;SDS011;3606;52.930;8.644;2023-06-22T14:05:28;5.00;;;4.60;;
7128;SDS011;3606;52.930;8.644;2023-06-22T14:07:54;7.40;;;5.03;;
7128;SDS011;3606;52.930;8.644;2023-06-22T14:10:19;7.88;;;5.00;;
7128;SDS011;3606;52.930;8.644;2023-06-22T14:12:45;5.25;;;4.72;;
7128;SDS011;3606;52.930;8.644;2023-06-22T14:15:11;5.57;;;5.07;;
7128;SDS011;3606;52.930;8.644;2023-06-22T14:17:36;6.40;;;5.00;;
7128;SDS011;3606;52.930;8.644;2023-06-22T14:20:02;5.50;;;5.03;;
7128;SDS011;3606;52.930;8.644;2023-06-22T14:22:28;6.18;;;5.10;;
7128;SDS011;3606;52.930;8.644;2023-06-22T14:24:54;5.95;;;5.45;;
7128;SDS011;3606;52.930;8.644;2023-06-22T14:27:22;5.43;;;4.93;;
7128;SDS011;3606;52.930;8.644;2023-06-22T14:29:48;5.60;;;5.10;;
7128;SDS011;3606;52.930;8.644;2023-06-22T14:32:15;5.85;;;5.25;;
7128;SDS011;3606;52.930;8.644;2023-06-22T14:34:41;5.57;;;4.97;;
7128;SDS011;3606;52.930;8.644;2023-06-22T14:37:07;6.78;;;5.68;;
7128;SDS011;3606;52.930;8.644;2023-06-22T14:39:37;6.40;;;5.80;;
7128;SDS011;3606;52.930;8.644;2023-06-22T14:42:04;7.30;;;5.88;;
7128;SDS011;3606;52.930;8.644;2023-06-22T14:44:30;7.78;;;7.07;;
7128;SDS011;3606;52.930;8.644;2023-06-22T14:46:56;8.13;;;7.28;;
7128;SDS011;3606;52.930;8.644;2023-06-22T14:49:22;7.95;;;7.15;;
7128;SDS011;3606;52.930;8.644;2023-06-22T14:51:47;9.03;;;6.87;;
7128;SDS011;3606;52.930;8.644;2023-06-22T14:54:13;7.97;;;7.18;;
7128;SDS011;3606;52.930;8.644;2023-06-22T14:56:39;8.65;;;7.82;;
7128;SDS011;3606;52.930;8.644;2023-06-22T14:59:05;8.97;;;8.07;;
7128;SDS011;3606;52.930;8.644;2023-06-22T15:01:30;9.37;;;7.77;;
7128;SDS011;3606;52.930;8.644;2023-06-22T15:03:56;10.07;;;8.73;;
7128;SDS011;3606;52.930;8.644;2023-06-22T15:06:22;9.57;;;8.33;;